TAF KHYA
KHYA 090520Z 0906/1006 35016G27KT 6SM -RA BR OVC015 FM091000 33013G25KT P6SM OVC030 FM091200 32013G24KT P6SM BKN035 FM092000 31009KT P6SM SCT250 FM100300 30003KT P6SM BKN100=
METAR KHYA
WC KHYA
WS KHYA
WV KHYA